createdAt,value
2019-02-23T00:01:11.404Z,116.30
2019-02-23T00:03:40.612Z,104.47
2019-02-23T00:06:09.936Z,110.20
2019-02-23T00:08:39.163Z,110.00
2019-02-23T00:11:11.392Z,113.47
2019-02-23T00:13:40.653Z,116.60
2019-02-23T00:16:09.913Z,114.43
2019-02-23T00:18:40.518Z,102.37
2019-02-23T00:21:09.865Z,111.47
2019-02-23T00:23:39.090Z,108.43
2019-02-23T00:26:08.279Z,102.50
2019-02-23T00:28:37.449Z,101.07
2019-02-23T00:31:07.086Z,103.83
2019-02-23T00:33:36.557Z,102.83
2019-02-23T00:36:05.843Z,109.87
2019-02-23T00:38:35.013Z,106.77
2019-02-23T00:41:04.278Z,109.47
2019-02-23T00:43:33.535Z,101.20
2019-02-23T00:46:03.789Z,108.70
2019-02-23T00:48:33.013Z,105.70
2019-02-23T00:51:02.791Z,109.13
2019-02-23T00:53:32.041Z,107.67
2019-02-23T00:56:01.643Z,107.27
2019-02-23T00:58:31.220Z,107.33
2019-02-23T01:01:00.839Z,106.83
2019-02-23T01:03:30.357Z,105.17
2019-02-23T01:05:59.608Z,107.33
2019-02-23T01:08:29.213Z,102.73
2019-02-23T01:10:58.607Z,111.53
2019-02-23T01:13:31.159Z,108.03
2019-02-23T01:16:03.825Z,99.37
2019-02-23T01:18:33.080Z,106.77
2019-02-23T01:21:02.353Z,111.80
2019-02-23T01:23:32.325Z,105.90
2019-02-23T01:26:03.308Z,107.80
2019-02-23T01:28:32.560Z,112.53
2019-02-23T01:31:02.127Z,112.03
2019-02-23T01:33:31.366Z,110.07
2019-02-23T01:36:02.281Z,106.57
2019-02-23T01:38:31.610Z,107.67
2019-02-23T01:41:00.822Z,112.30
2019-02-23T01:43:30.004Z,111.40
2019-02-23T01:45:59.261Z,102.03
2019-02-23T01:48:28.539Z,113.33
2019-02-23T01:50:57.992Z,118.53
2019-02-23T01:53:27.179Z,109.80
2019-02-23T01:55:56.424Z,102.20
2019-02-23T01:58:25.591Z,106.20
2019-02-23T02:00:55.229Z,109.77
2019-02-23T02:03:27.694Z,112.93
2019-02-23T02:05:56.935Z,117.07
2019-02-23T02:08:26.106Z,102.43
2019-02-23T02:10:58.063Z,110.97
2019-02-23T02:13:27.509Z,109.33
2019-02-23T02:15:59.116Z,113.90
2019-02-23T02:18:28.418Z,116.90
2019-02-23T02:20:57.667Z,112.97
2019-02-23T02:23:27.049Z,106.37
2019-02-23T02:25:57.955Z,104.07
2019-02-23T02:28:28.023Z,109.27
2019-02-23T02:30:57.624Z,114.60
2019-02-23T02:33:26.901Z,107.77
2019-02-23T02:35:56.147Z,105.57
2019-02-23T02:38:25.432Z,111.47
2019-02-23T02:40:54.745Z,113.80
2019-02-23T02:43:23.977Z,103.07
2019-02-23T02:45:53.147Z,106.40
2019-02-23T02:48:22.311Z,101.27
2019-02-23T02:50:51.819Z,108.13
2019-02-23T02:53:21.123Z,110.17
2019-02-23T02:55:50.448Z,106.93
2019-02-23T02:58:19.697Z,120.93
2019-02-23T03:00:49.228Z,111.90
2019-02-23T03:03:18.729Z,119.10
2019-02-23T03:05:48.829Z,118.43
2019-02-23T03:08:17.992Z,111.60
2019-02-23T03:10:50.304Z,109.13
2019-02-23T03:13:19.620Z,105.07
2019-02-23T03:15:51.566Z,105.93
2019-02-23T03:18:20.796Z,110.47
2019-02-23T03:20:50.266Z,102.33
2019-02-23T03:23:19.870Z,109.97
2019-02-23T03:25:49.787Z,104.37
2019-02-23T03:28:21.260Z,112.63
2019-02-23T03:30:49.968Z,112.37
2019-02-23T03:33:19.288Z,114.63
2019-02-23T03:35:50.956Z,115.90
2019-02-23T03:38:20.122Z,113.57
2019-02-23T03:40:53.161Z,106.03
2019-02-23T03:43:22.351Z,104.87
2019-02-23T03:45:51.596Z,104.23
2019-02-23T03:48:20.832Z,102.10
2019-02-23T03:50:50.447Z,100.90
2019-02-23T03:53:19.764Z,109.47
2019-02-23T03:55:48.937Z,107.80
2019-02-23T03:58:18.193Z,113.13
2019-02-23T04:00:47.456Z,109.47
2019-02-23T04:03:16.716Z,109.33
2019-02-23T04:05:46.261Z,101.27
2019-02-23T04:08:18.819Z,106.93
2019-02-23T04:10:48.513Z,96.77
2019-02-23T04:13:17.762Z,98.70
2019-02-23T04:15:47.011Z,99.63
2019-02-23T04:18:16.210Z,102.87
2019-02-23T04:20:45.729Z,100.63
2019-02-23T04:23:15.233Z,101.93
2019-02-23T04:25:44.429Z,95.70
2019-02-23T04:28:19.356Z,91.00
2019-02-23T04:30:48.681Z,100.67
2019-02-23T04:33:18.193Z,91.37
2019-02-23T04:35:47.769Z,96.60
2019-02-23T04:38:18.702Z,94.07
2019-02-23T04:40:47.979Z,87.03
2019-02-23T04:43:17.139Z,96.70
2019-02-23T04:45:46.918Z,91.83
2019-02-23T04:48:17.758Z,90.20
2019-02-23T04:50:47.422Z,89.63
2019-02-23T04:53:17.038Z,88.70
2019-02-23T04:55:46.659Z,88.17
2019-02-23T04:58:15.905Z,84.40
2019-02-23T05:00:45.565Z,85.63
2019-02-23T05:03:15.490Z,86.47
2019-02-23T05:05:44.878Z,86.07
2019-02-23T05:08:14.061Z,84.17
2019-02-23T05:10:45.426Z,88.40
2019-02-23T05:13:14.912Z,86.97
2019-02-23T05:15:44.500Z,89.63
2019-02-23T05:18:14.046Z,86.67
2019-02-23T05:20:43.393Z,86.40
2019-02-23T05:23:12.919Z,88.80
2019-02-23T05:25:42.490Z,92.33
2019-02-23T05:28:11.640Z,83.90
2019-02-23T05:30:40.848Z,82.80
2019-02-23T05:33:10.329Z,78.07
2019-02-23T05:35:39.663Z,82.97
2019-02-23T05:38:13.777Z,84.63
2019-02-23T05:40:43.044Z,80.57
2019-02-23T05:43:12.213Z,83.13
2019-02-23T05:45:42.984Z,76.70
2019-02-23T05:48:13.815Z,88.27
2019-02-23T05:50:43.329Z,85.27
2019-02-23T05:53:12.821Z,83.77
2019-02-23T05:55:41.977Z,83.50
2019-02-23T05:58:11.593Z,87.70
2019-02-23T06:00:40.927Z,82.77
2019-02-23T06:03:10.541Z,93.87
2019-02-23T06:05:39.699Z,81.90
2019-02-23T06:08:09.306Z,79.03
2019-02-23T06:10:38.575Z,77.67
2019-02-23T06:13:09.905Z,86.80
2019-02-23T06:15:39.348Z,86.27
2019-02-23T06:18:08.604Z,86.50
2019-02-23T06:20:37.775Z,89.67
2019-02-23T06:23:07.045Z,84.43
2019-02-23T06:25:36.557Z,87.87
2019-02-23T06:28:07.634Z,87.37
2019-02-23T06:30:36.931Z,85.37
2019-02-23T06:33:06.408Z,80.43
2019-02-23T06:35:35.594Z,82.70
2019-02-23T06:38:05.702Z,82.70
2019-02-23T06:40:37.859Z,82.67
2019-02-23T06:43:07.404Z,82.37
2019-02-23T06:45:36.834Z,95.53
2019-02-23T06:48:06.282Z,83.20
2019-02-23T06:50:35.831Z,80.17
2019-02-23T06:53:05.620Z,87.17
2019-02-23T06:55:36.682Z,74.73
2019-02-23T06:58:06.327Z,81.50
2019-02-23T07:00:38.261Z,84.43
2019-02-23T07:03:10.030Z,78.27
2019-02-23T07:05:40.533Z,80.63
2019-02-23T07:08:09.776Z,78.00
2019-02-23T07:10:39.206Z,84.83
2019-02-23T07:13:08.431Z,89.53
2019-02-23T07:15:37.612Z,81.40
2019-02-23T07:18:07.593Z,76.57
2019-02-23T07:20:44.390Z,85.07
2019-02-23T07:23:10.525Z,77.07
2019-02-23T07:25:58.866Z,73.63
2019-02-23T07:28:30.006Z,73.63
2019-02-23T07:30:59.517Z,69.67
2019-02-23T07:33:32.804Z,76.03
2019-02-23T07:35:59.992Z,83.00
2019-02-23T07:38:29.363Z,75.13
2019-02-23T07:40:59.036Z,74.43
2019-02-23T07:43:28.352Z,71.00
2019-02-23T07:46:00.959Z,70.63
2019-02-23T07:48:30.142Z,71.50
2019-02-23T07:50:59.933Z,77.63
2019-02-23T07:53:30.930Z,75.70
2019-02-23T07:56:00.153Z,78.17
2019-02-23T07:58:29.393Z,78.10
2019-02-23T08:00:58.653Z,79.60
2019-02-23T08:03:27.923Z,76.87
2019-02-23T08:05:57.695Z,81.63
2019-02-23T08:08:26.891Z,80.33
2019-02-23T08:10:56.339Z,80.63
2019-02-23T08:13:25.579Z,80.90
2019-02-23T08:15:54.764Z,72.30
2019-02-23T08:18:24.361Z,72.43
2019-02-23T08:20:53.690Z,79.03
2019-02-23T08:23:22.944Z,71.57
2019-02-23T08:25:52.518Z,73.67
2019-02-23T08:28:22.131Z,80.40
2019-02-23T08:30:51.513Z,61.77
2019-02-23T08:33:20.794Z,73.53
2019-02-23T08:35:50.060Z,63.67
2019-02-23T08:38:19.322Z,55.50
2019-02-23T08:40:48.898Z,57.87
2019-02-23T08:43:20.673Z,55.37
2019-02-23T08:45:49.418Z,53.90
2019-02-23T08:48:22.239Z,64.03
2019-02-23T08:50:51.524Z,52.50
2019-02-23T08:53:24.089Z,53.10
2019-02-23T08:55:53.624Z,45.50
2019-02-23T08:58:22.867Z,46.93
2019-02-23T09:00:52.402Z,51.20
2019-02-23T09:03:21.970Z,44.70
2019-02-23T09:05:51.329Z,37.87
2019-02-23T09:08:20.982Z,36.27
2019-02-23T09:10:50.583Z,34.43
2019-02-23T09:13:20.224Z,32.13
2019-02-23T09:15:52.326Z,31.17
2019-02-23T09:18:22.252Z,28.93
2019-02-23T09:20:53.350Z,31.60
2019-02-23T09:23:23.189Z,25.53
2019-02-23T09:25:53.134Z,30.97
2019-02-23T09:28:23.753Z,29.07
2019-02-23T09:30:53.999Z,20.93
2019-02-23T09:33:24.286Z,24.90
2019-02-23T09:35:54.273Z,24.17
2019-02-23T09:38:23.659Z,24.53
2019-02-23T09:40:52.994Z,21.70
2019-02-23T09:43:22.283Z,22.17
2019-02-23T09:45:51.997Z,21.07
2019-02-23T09:48:21.364Z,22.17
2019-02-23T09:50:52.307Z,20.80
2019-02-23T09:53:23.419Z,16.03
2019-02-23T09:55:58.443Z,19.73
2019-02-23T09:58:32.248Z,16.47
2019-02-23T10:01:08.650Z,14.67
2019-02-23T10:03:41.875Z,22.93
2019-02-23T10:06:15.542Z,15.27
2019-02-23T10:08:45.000Z,16.60
2019-02-23T10:11:14.403Z,17.37
2019-02-23T10:13:44.354Z,13.17
2019-02-23T10:16:16.804Z,17.77
2019-02-23T10:18:46.166Z,13.57
2019-02-23T10:21:15.424Z,12.80
2019-02-23T10:23:44.734Z,16.83
2019-02-23T10:26:14.366Z,15.83
2019-02-23T10:28:43.750Z,14.03
2019-02-23T10:31:13.032Z,17.03
2019-02-23T10:33:47.548Z,16.20
2019-02-23T10:36:13.355Z,14.93
2019-02-23T10:38:42.717Z,17.77
2019-02-23T10:41:12.086Z,19.62
2019-02-23T10:43:45.323Z,20.50
2019-02-23T10:46:16.334Z,18.43
2019-02-23T10:48:46.676Z,16.40
2019-02-23T10:51:16.416Z,15.83
2019-02-23T10:53:45.794Z,15.45
2019-02-23T10:56:15.479Z,15.63
2019-02-23T10:58:45.082Z,14.07
2019-02-23T11:01:14.519Z,16.37
2019-02-23T11:03:44.385Z,14.28
2019-02-23T11:06:13.839Z,12.00
2019-02-23T11:08:43.135Z,17.02
2019-02-23T11:11:12.509Z,12.75
2019-02-23T11:13:42.255Z,11.40
2019-02-23T11:16:30.787Z,16.52
2019-02-23T11:19:00.557Z,13.15
2019-02-23T11:21:30.255Z,12.58
2019-02-23T11:23:59.771Z,12.65
2019-02-23T11:26:29.047Z,11.60
2019-02-23T11:28:58.411Z,11.57
2019-02-23T11:31:27.781Z,11.70
2019-02-23T11:33:57.144Z,13.13
2019-02-23T11:36:26.525Z,11.40
2019-02-23T11:38:55.867Z,14.00
2019-02-23T11:41:26.463Z,11.50
2019-02-23T11:43:55.717Z,10.08
2019-02-23T11:46:25.158Z,9.60
2019-02-23T11:48:54.439Z,12.05
2019-02-23T11:51:23.761Z,10.43
2019-02-23T11:53:55.189Z,10.88
2019-02-23T11:56:24.688Z,11.43
2019-02-23T11:58:54.351Z,14.70
2019-02-23T12:01:23.703Z,11.38
2019-02-23T12:03:53.095Z,10.98
2019-02-23T12:06:22.330Z,13.32
2019-02-23T12:08:51.713Z,13.38
2019-02-23T12:11:21.060Z,10.43
2019-02-23T12:13:50.662Z,10.28
2019-02-23T12:16:22.276Z,12.80
2019-02-23T12:18:51.575Z,8.80
2019-02-23T12:21:23.210Z,8.75
2019-02-23T12:23:52.474Z,11.30
2019-02-23T12:26:22.078Z,13.98
2019-02-23T12:28:51.334Z,9.08
2019-02-23T12:31:21.081Z,8.45
2019-02-23T12:33:50.416Z,10.35
2019-02-23T12:36:19.698Z,10.43
2019-02-23T12:38:49.018Z,10.10
2019-02-23T12:41:18.278Z,10.50
2019-02-23T12:43:47.492Z,11.03
2019-02-23T12:46:16.743Z,12.03
2019-02-23T12:48:48.076Z,9.55
2019-02-23T12:51:17.238Z,11.12
2019-02-23T12:53:49.049Z,12.00
2019-02-23T12:56:21.175Z,11.50
2019-02-23T12:58:50.746Z,10.80
2019-02-23T13:01:20.476Z,10.58
2019-02-23T13:03:49.666Z,12.82
2019-02-23T13:06:18.915Z,10.05
2019-02-23T13:09:16.240Z,12.10
2019-02-23T13:12:12.257Z,15.80
2019-02-23T13:14:58.933Z,13.32
2019-02-23T13:18:12.396Z,14.13
2019-02-23T13:21:15.243Z,12.13
2019-02-23T13:24:04.543Z,12.35
2019-02-23T13:27:05.726Z,9.15
2019-02-23T13:30:03.207Z,10.75
2019-02-23T13:33:25.974Z,11.53
2019-02-23T13:36:33.379Z,13.13
2019-02-23T13:39:18.474Z,10.45
2019-02-23T13:42:13.211Z,11.15
2019-02-23T13:45:03.571Z,10.00
2019-02-23T13:47:55.762Z,11.53
2019-02-23T13:51:17.396Z,10.05
2019-02-23T13:54:38.419Z,8.95
2019-02-23T13:57:35.655Z,9.58
2019-02-23T14:00:48.586Z,10.75
2019-02-23T14:04:03.119Z,9.98
2019-02-23T14:07:03.094Z,10.35
2019-02-23T14:10:12.138Z,11.08
2019-02-23T14:13:21.081Z,10.78
2019-02-23T14:16:13.291Z,8.98
2019-02-23T14:19:35.481Z,8.73
2019-02-23T14:22:32.466Z,9.90
2019-02-23T14:25:44.711Z,8.88
2019-02-23T14:28:43.271Z,9.83
2019-02-23T14:31:43.336Z,9.50
2019-02-23T14:34:49.446Z,10.00
2019-02-23T14:37:41.907Z,8.65
2019-02-23T14:41:10.578Z,10.88
2019-02-23T14:44:22.684Z,12.25
2019-02-23T14:47:28.945Z,7.97
2019-02-23T14:50:35.110Z,11.55
2019-02-23T14:53:41.179Z,11.80
2019-02-23T14:56:31.199Z,9.58
2019-02-23T14:59:53.671Z,11.15
2019-02-23T15:03:14.992Z,8.65
2019-02-23T15:06:34.099Z,9.15
2019-02-23T15:09:41.353Z,9.30
2019-02-23T15:12:47.495Z,9.25
2019-02-23T15:16:00.829Z,11.08
2019-02-23T15:19:02.167Z,9.55
2019-02-23T15:22:08.053Z,9.80
2019-02-23T15:25:20.252Z,8.35
2019-02-23T15:28:37.650Z,7.47
2019-02-23T15:31:58.725Z,10.75
2019-02-23T15:35:02.377Z,12.73
2019-02-23T15:38:10.070Z,8.45
2019-02-23T15:41:26.393Z,11.75
2019-02-23T15:44:28.176Z,11.23
2019-02-23T15:47:26.334Z,10.00
2019-02-23T15:49:56.250Z,11.23
2019-02-23T15:52:25.700Z,11.60
2019-02-23T15:54:55.184Z,10.23
2019-02-23T15:57:24.770Z,12.80
2019-02-23T15:59:54.487Z,13.53
2019-02-23T16:02:24.135Z,11.80
2019-02-23T16:04:53.311Z,11.03
2019-02-23T16:07:22.932Z,19.47
2019-02-23T16:09:52.274Z,14.57
2019-02-23T16:12:21.869Z,20.70
2019-02-23T16:14:51.483Z,15.10
2019-02-23T16:17:21.079Z,17.07
2019-02-23T16:19:50.781Z,15.07
2019-02-23T16:22:20.008Z,18.00
2019-02-23T16:24:49.849Z,17.83
2019-02-23T16:27:19.221Z,21.60
2019-02-23T16:29:48.491Z,16.63
2019-02-23T16:32:17.785Z,17.10
2019-02-23T16:34:48.600Z,19.77
2019-02-23T16:37:17.889Z,23.70
2019-02-23T16:39:47.284Z,14.67
2019-02-23T16:42:18.707Z,21.60
2019-02-23T16:44:47.867Z,16.90
2019-02-23T16:47:17.575Z,23.37
2019-02-23T16:49:46.873Z,18.70
2019-02-23T16:52:19.179Z,22.13
2019-02-23T16:54:48.387Z,17.07
2019-02-23T16:57:17.932Z,19.23
2019-02-23T16:59:48.249Z,20.63
2019-02-23T17:02:17.447Z,21.30
2019-02-23T17:04:53.592Z,18.87
2019-02-23T17:07:18.065Z,17.97
2019-02-23T17:09:47.625Z,22.57
2019-02-23T17:12:17.513Z,18.20
2019-02-23T17:14:46.779Z,19.63
2019-02-23T17:17:16.242Z,22.67
2019-02-23T17:19:45.525Z,23.63
2019-02-23T17:22:15.055Z,20.20
2019-02-23T17:24:44.303Z,22.40
2019-02-23T17:27:13.568Z,22.07
2019-02-23T17:29:42.745Z,25.87
2019-02-23T17:32:12.275Z,27.23
2019-02-23T17:34:41.593Z,26.93
2019-02-23T17:37:11.065Z,24.13
2019-02-23T17:39:40.269Z,21.13
2019-02-23T17:42:09.470Z,21.67
2019-02-23T17:44:38.846Z,24.30
2019-02-23T17:47:08.126Z,22.73
2019-02-23T17:49:37.488Z,22.73
2019-02-23T17:52:07.642Z,29.47
2019-02-23T17:54:37.595Z,25.27
2019-02-23T17:57:07.333Z,23.93
2019-02-23T17:59:36.966Z,26.07
2019-02-23T18:02:06.437Z,24.90
2019-02-23T18:04:35.678Z,24.60
2019-02-23T18:07:04.946Z,28.77
2019-02-23T18:09:34.563Z,26.77
2019-02-23T18:12:05.411Z,30.67
2019-02-23T18:14:35.199Z,28.23
2019-02-23T18:17:04.484Z,31.30
2019-02-23T18:19:34.065Z,30.10
2019-02-23T18:22:03.655Z,29.27
2019-02-23T18:24:32.943Z,29.03
2019-02-23T18:27:02.180Z,31.07
2019-02-23T18:29:31.807Z,30.93
2019-02-23T18:32:02.595Z,34.30
2019-02-23T18:34:32.175Z,30.47
2019-02-23T18:37:01.628Z,35.77
2019-02-23T18:39:31.613Z,33.57
2019-02-23T18:42:01.291Z,37.17
2019-02-23T18:44:32.843Z,35.37
2019-02-23T18:47:02.193Z,33.80
2019-02-23T18:49:31.435Z,35.87
2019-02-23T18:52:00.657Z,40.50
2019-02-23T18:54:30.195Z,31.70
2019-02-23T18:56:59.457Z,37.07
2019-02-23T18:59:28.910Z,38.70
2019-02-23T19:01:58.756Z,38.70
2019-02-23T19:04:28.324Z,36.83
2019-02-23T19:06:57.638Z,41.40
2019-02-23T19:09:29.950Z,36.47
2019-02-23T19:11:59.266Z,39.27
2019-02-23T19:14:28.913Z,39.10
2019-02-23T19:16:58.095Z,40.23
2019-02-23T19:19:30.900Z,41.33
2019-02-23T19:22:00.209Z,37.60
2019-02-23T19:24:29.459Z,38.43
2019-02-23T19:26:58.757Z,39.93
2019-02-23T19:29:28.386Z,43.83
2019-02-23T19:31:58.037Z,38.93
2019-02-23T19:34:27.356Z,37.70
2019-02-23T19:36:56.635Z,40.80
2019-02-23T19:39:25.964Z,41.40
2019-02-23T19:41:55.153Z,43.00
2019-02-23T19:44:24.337Z,42.67
2019-02-23T19:47:04.565Z,43.13
2019-02-23T19:49:34.255Z,43.93
2019-02-23T19:52:06.852Z,45.53
2019-02-23T19:54:36.098Z,46.13
2019-02-23T19:57:08.033Z,45.33
2019-02-23T19:59:37.722Z,46.17
2019-02-23T20:02:07.687Z,42.30
2019-02-23T20:04:36.868Z,38.73
2019-02-23T20:07:06.123Z,43.37
2019-02-23T20:09:35.310Z,45.20
2019-02-23T20:12:04.833Z,42.50
2019-02-23T20:14:34.109Z,46.13
2019-02-23T20:17:03.735Z,44.57
2019-02-23T20:19:33.425Z,40.83
2019-02-23T20:22:02.676Z,43.07
2019-02-23T20:24:31.905Z,44.23
2019-02-23T20:27:01.680Z,46.23
2019-02-23T20:29:31.168Z,38.73
2019-02-23T20:32:00.473Z,40.37
2019-02-23T20:34:31.161Z,41.90
2019-02-23T20:37:00.338Z,41.90
2019-02-23T20:39:29.675Z,38.23
2019-02-23T20:41:59.506Z,40.67
2019-02-23T20:44:28.746Z,41.13
2019-02-23T20:46:58.115Z,42.17
2019-02-23T20:49:30.816Z,45.07
2019-02-23T20:52:00.091Z,42.13
2019-02-23T20:54:29.654Z,45.50
2019-02-23T20:57:05.307Z,39.87
2019-02-23T20:59:29.822Z,41.80
2019-02-23T21:01:58.991Z,40.00
2019-02-23T21:04:28.801Z,42.07
2019-02-23T21:06:57.966Z,40.43
2019-02-23T21:09:27.310Z,43.93
2019-02-23T21:11:56.479Z,47.00
2019-02-23T21:14:25.663Z,41.13
2019-02-23T21:16:55.815Z,43.23
2019-02-23T21:19:27.294Z,40.00
2019-02-23T21:21:56.614Z,42.40
2019-02-23T21:24:25.809Z,42.27
2019-02-23T21:26:55.094Z,41.53
2019-02-23T21:29:24.419Z,40.00
2019-02-23T21:31:54.038Z,41.13
2019-02-23T21:34:25.029Z,48.77
2019-02-23T21:36:57.913Z,40.33
2019-02-23T21:39:27.093Z,38.63
2019-02-23T21:42:00.614Z,40.93
2019-02-23T21:44:29.803Z,41.80
2019-02-23T21:46:59.001Z,45.10
2019-02-23T21:49:28.527Z,42.83
2019-02-23T21:52:00.004Z,38.60
2019-02-23T21:54:28.649Z,38.47
2019-02-23T21:56:57.829Z,36.50
2019-02-23T21:59:27.057Z,39.77
2019-02-23T22:01:58.112Z,39.60
2019-02-23T22:04:54.431Z,43.03
2019-02-23T22:07:25.387Z,36.93
2019-02-23T22:09:56.488Z,36.27
2019-02-23T22:12:28.524Z,37.10
2019-02-23T22:14:58.014Z,38.17
2019-02-23T22:17:28.742Z,41.27
2019-02-23T22:19:58.347Z,40.90
2019-02-23T22:22:27.513Z,38.87
2019-02-23T22:24:59.255Z,38.23
2019-02-23T22:27:31.411Z,47.43
2019-02-23T22:29:59.567Z,37.87
2019-02-23T22:32:28.964Z,42.70
2019-02-23T22:34:58.136Z,43.23
2019-02-23T22:37:27.666Z,35.20
2019-02-23T22:39:58.956Z,42.33
2019-02-23T22:42:28.158Z,40.10
2019-02-23T22:44:57.792Z,37.90
2019-02-23T22:47:26.979Z,41.90
2019-02-23T22:49:56.495Z,40.13
2019-02-23T22:52:28.112Z,43.77
2019-02-23T22:55:00.272Z,41.53
2019-02-23T22:57:39.999Z,41.87
2019-02-23T23:00:00.984Z,41.33
2019-02-23T23:02:30.684Z,46.90
2019-02-23T23:05:02.014Z,39.60
2019-02-23T23:07:31.227Z,45.30
2019-02-23T23:10:00.399Z,42.30
2019-02-23T23:12:30.092Z,36.83
2019-02-23T23:15:02.640Z,40.63
2019-02-23T23:17:31.845Z,39.73
2019-02-23T23:20:01.013Z,41.37
2019-02-23T23:22:31.455Z,37.63
2019-02-23T23:25:00.828Z,36.17
2019-02-23T23:27:30.098Z,42.13
2019-02-23T23:29:59.328Z,45.23
2019-02-23T23:32:28.509Z,38.13
2019-02-23T23:34:58.080Z,36.77
2019-02-23T23:37:27.471Z,41.30
2019-02-23T23:39:59.320Z,33.87
2019-02-23T23:42:28.950Z,39.03
2019-02-23T23:44:58.662Z,34.13
2019-02-23T23:47:28.072Z,38.77
2019-02-23T23:49:57.257Z,38.50
2019-02-23T23:52:26.691Z,37.03
2019-02-23T23:54:56.193Z,34.53
2019-02-23T23:57:27.768Z,38.60
2019-02-23T23:59:59.635Z,37.30
